Time;durP1;ratioP1;P1;durP2;ratioP2;P2;SDS_P1;SDS_P2;PMS_P1;PMS_P2;Temp;Humidity;BMP_temperature;BMP_pressure;BME280_temperature;BME280_humidity;BME280_pressure;Samples;Min_cycle;Max_cycle;Signal;HPM_P1;HPM_P2
2022/10/26 00:00:27;;;;;;;17.92;8.55;;;;;;;12.74;100.00;99077.88;4325205;33;20086;-73
2022/10/26 00:03:15;;;;;;;18.92;8.25;;;;;;;12.95;100.00;99084.19;4346295;33;20113;-74
2022/10/26 00:05:42;;;;;;;23.98;8.93;;;;;;;12.80;100.00;99047.09;4353123;32;20024;-72
2022/10/26 00:08:09;;;;;;;16.77;7.85;;;;;;;12.82;100.00;99069.25;4353506;32;20595;-72
2022/10/26 00:10:38;;;;;;;19.65;8.50;;;;;;;12.64;100.00;99047.03;4353807;32;20448;-72
2022/10/26 00:13:09;;;;;;;16.17;8.07;;;;;;;12.61;100.00;99060.25;4328470;33;20044;-75
2022/10/26 00:15:40;;;;;;;13.18;7.55;;;;;;;12.66;100.00;99069.19;4322818;33;20670;-73
2022/10/26 00:18:07;;;;;;;21.80;8.20;;;;;;;12.45;100.00;99064.75;4294006;33;20049;-72
2022/10/26 00:20:33;;;;;;;17.20;8.55;;;;;;;12.81;100.00;99100.06;4307689;33;20048;-72
2022/10/26 00:23:00;;;;;;;13.55;7.78;;;;;;;12.84;100.00;99086.00;4322877;33;20036;-72
2022/10/26 00:25:26;;;;;;;19.20;8.50;;;;;;;12.93;100.00;99092.56;4307210;33;20072;-73
2022/10/26 00:27:53;;;;;;;13.27;8.10;;;;;;;12.74;100.00;99094.87;4327683;33;20560;-72
2022/10/26 00:30:19;;;;;;;11.90;7.30;;;;;;;12.31;100.00;99022.00;4303367;33;20063;-73
2022/10/26 00:32:45;;;;;;;25.65;10.20;;;;;;;12.30;100.00;99090.59;4307936;33;20103;-72
2022/10/26 00:35:12;;;;;;;17.60;8.82;;;;;;;12.54;100.00;99095.59;4308017;33;20037;-74
2022/10/26 00:37:38;;;;;;;13.38;8.90;;;;;;;12.34;100.00;99072.78;4308466;33;20053;-72
2022/10/26 00:40:05;;;;;;;16.50;8.73;;;;;;;12.50;100.00;99072.88;4310895;33;20062;-72
2022/10/26 00:42:32;;;;;;;13.13;9.48;;;;;;;12.63;100.00;99104.81;4322284;33;20325;-73
2022/10/26 00:45:18;;;;;;;17.10;8.75;;;;;;;12.71;100.00;99092.72;4318417;33;20032;-72
2022/10/26 00:47:49;;;;;;;17.10;9.52;;;;;;;12.74;100.00;99103.00;4328092;33;20049;-72
2022/10/26 00:50:39;;;;;;;17.08;9.10;;;;;;;12.82;100.00;99098.97;4319593;33;20041;-72
2022/10/26 00:53:07;;;;;;;15.25;9.93;;;;;;;12.95;100.00;99092.28;4323653;33;20971;-72
2022/10/26 00:55:37;;;;;;;19.92;9.27;;;;;;;12.81;100.00;99100.06;4322468;33;20033;-72
2022/10/26 00:58:05;;;;;;;17.20;9.32;;;;;;;13.09;100.00;99080.72;4310680;33;20125;-72
2022/10/26 01:00:32;;;;;;;16.80;10.55;;;;;;;12.86;100.00;99081.16;4300248;33;20068;-74
2022/10/26 01:03:03;;;;;;;13.32;9.18;;;;;;;13.12;100.00;99084.00;4294154;33;20725;-72
2022/10/26 01:05:31;;;;;;;25.25;9.77;;;;;;;12.99;100.00;99085.28;4306034;33;20488;-72
2022/10/26 01:07:57;;;;;;;21.23;10.10;;;;;;;12.87;100.00;99088.19;4323191;33;20444;-72
2022/10/26 01:10:24;;;;;;;27.58;11.07;;;;;;;12.66;100.00;99085.38;4329962;33;20060;-75
2022/10/26 01:12:52;;;;;;;18.58;8.95;;;;;;;12.90;100.00;99082.25;4335983;33;20197;-72
2022/10/26 01:15:23;;;;;;;17.85;10.38;;;;;;;12.96;100.00;99086.63;4341398;33;20032;-72
2022/10/26 01:18:19;;;;;;;15.75;10.65;;;;;;;12.47;100.00;99057.19;4325900;33;20052;-72
2022/10/26 01:21:31;;;;;;;17.50;9.40;;;;;;;12.89;100.00;99091.44;4282623;33;20053;-72
2022/10/26 01:24:21;;;;;;;15.05;9.57;;;;;;;12.60;100.00;99072.94;4274767;33;20053;-73
2022/10/26 01:27:08;;;;;;;27.62;11.65;;;;;;;12.95;100.00;99101.19;4268666;33;20030;-72
2022/10/26 01:30:00;;;;;;;17.60;9.90;;;;;;;12.62;100.00;99067.25;4267427;33;20046;-72
2022/10/26 01:32:33;;;;;;;17.05;10.07;;;;;;;12.94;100.00;99110.41;4267005;33;20060;-72
2022/10/26 01:35:11;;;;;;;21.42;11.50;;;;;;;12.82;100.00;99107.91;4265977;33;20059;-74
2022/10/26 01:37:46;;;;;;;25.23;11.80;;;;;;;12.77;100.00;99109.78;4271900;33;20026;-72
2022/10/26 01:40:33;;;;;;;25.40;13.32;;;;;;;12.57;100.00;99116.66;4288037;33;20102;-72
2022/10/26 01:43:06;;;;;;;21.60;11.82;;;;;;;12.76;100.00;99108.13;4296038;33;20045;-73
2022/10/26 01:45:35;;;;;;;25.52;14.20;;;;;;;12.48;100.00;99054.25;4297385;33;20202;-73
2022/10/26 01:48:03;;;;;;;22.70;13.82;;;;;;;12.81;100.00;99111.69;4298791;33;20081;-73
2022/10/26 01:50:31;;;;;;;22.85;12.88;;;;;;;12.65;100.00;99097.28;4300868;33;20054;-74
2022/10/26 01:52:57;;;;;;;29.63;13.43;;;;;;;12.63;100.00;99110.22;4304908;33;20045;-74
2022/10/26 01:55:39;;;;;;;24.67;14.75;;;;;;;12.28;100.00;99076.50;4288537;33;20055;-73
2022/10/26 01:58:43;;;;;;;31.15;14.75;;;;;;;12.30;100.00;99071.69;4303299;33;20033;-73
2022/10/26 02:01:57;;;;;;;25.42;14.18;;;;;;;12.39;100.00;99068.50;4321139;33;20066;-73
2022/10/26 02:04:55;;;;;;;27.17;14.38;;;;;;;12.46;100.00;99109.56;4260069;33;20069;-73
2022/10/26 02:07:32;;;;;;;31.20;16.08;;;;;;;12.66;100.00;99098.09;4295795;33;20061;-73
2022/10/26 02:10:09;;;;;;;25.55;14.25;;;;;;;12.44;100.00;99100.91;4312108;33;20033;-73
2022/10/26 02:13:06;;;;;;;42.35;15.55;;;;;;;12.31;100.00;99070.59;4323516;33;20037;-74
2022/10/26 02:15:55;;;;;;;30.95;15.77;;;;;;;12.69;100.00;99109.19;4315639;33;20037;-72
2022/10/26 02:18:33;;;;;;;81.30;16.65;;;;;;;12.60;100.00;99094.53;4310517;33;21040;-72
2022/10/26 02:21:13;;;;;;;64.32;17.08;;;;;;;12.40;100.00;99091.69;4295298;33;20059;-74
2022/10/26 02:23:42;;;;;;;141.98;19.27;;;;;;;12.32;100.00;99109.22;4294076;33;20188;-72
2022/10/26 02:26:12;;;;;;;109.68;16.02;;;;;;;12.39;100.00;99114.41;4307012;33;20244;-72
2022/10/26 02:28:46;;;;;;;245.05;17.92;;;;;;;11.76;100.00;99052.91;4324757;33;20071;-72
2022/10/26 02:31:14;;;;;;;335.30;20.25;;;;;;;12.08;100.00;99071.78;4325869;33;20036;-73
2022/10/26 02:33:45;;;;;;;353.25;19.98;;;;;;;12.21;100.00;99075.94;4323397;33;20052;-74
2022/10/26 02:36:17;;;;;;;200.27;16.93;;;;;;;12.46;100.00;99120.38;4324639;33;20066;-71
2022/10/26 02:38:46;;;;;;;408.25;22.08;;;;;;;11.80;100.00;99089.88;4348453;32;20204;-71
2022/10/26 02:41:14;;;;;;;315.17;19.37;;;;;;;12.18;100.00;99120.44;4342862;32;20074;-72
2022/10/26 02:43:47;;;;;;;246.82;21.20;;;;;;;12.24;100.00;99128.56;4336741;33;20409;-72
2022/10/26 02:46:17;;;;;;;221.48;22.37;;;;;;;11.98;100.00;99061.75;4340656;32;20465;-72
2022/10/26 02:48:43;;;;;;;275.95;21.83;;;;;;;12.22;100.00;99077.56;4347605;32;20052;-72
2022/10/26 02:51:17;;;;;;;266.15;19.67;;;;;;;12.11;100.00;99086.63;4339751;33;20402;-72
2022/10/26 02:53:49;;;;;;;190.90;19.17;;;;;;;12.18;100.00;99128.53;4338986;33;20105;-72
2022/10/26 02:56:29;;;;;;;164.73;18.92;;;;;;;12.11;100.00;99108.22;4338782;33;20036;-72
2022/10/26 02:59:01;;;;;;;225.02;19.80;;;;;;;11.99;100.00;99095.72;4322078;33;20054;-75
2022/10/26 03:01:28;;;;;;;162.10;22.07;;;;;;;12.29;100.00;99137.53;4351280;32;20073;-72
2022/10/26 03:03:58;;;;;;;211.62;20.65;;;;;;;12.27;100.00;99145.09;4355489;32;20191;-73
2022/10/26 03:06:25;;;;;;;238.40;21.87;;;;;;;12.33;100.00;99138.66;4323919;33;20434;-73
2022/10/26 03:08:52;;;;;;;273.10;22.52;;;;;;;12.35;100.00;99131.13;4327795;33;20044;-74
2022/10/26 03:11:18;;;;;;;269.75;21.20;;;;;;;12.16;100.00;99129.88;4323344;33;20032;-73
2022/10/26 03:13:45;;;;;;;280.98;19.95;;;;;;;11.87;100.00;99108.56;4324418;33;20048;-73
2022/10/26 03:16:11;;;;;;;287.25;19.75;;;;;;;12.11;100.00;99137.91;4339949;33;20062;-73
2022/10/26 03:18:40;;;;;;;331.30;23.92;;;;;;;12.13;100.00;99138.50;4338748;33;20036;-73
2022/10/26 03:21:06;;;;;;;297.77;20.95;;;;;;;12.11;100.00;99110.94;4323274;33;20105;-72
2022/10/26 03:23:33;;;;;;;413.15;25.42;;;;;;;12.25;100.00;99147.22;4323228;33;20067;-75
2022/10/26 03:25:59;;;;;;;310.63;22.45;;;;;;;12.62;100.00;99151.00;4324844;33;20037;-73
2022/10/26 03:28:26;;;;;;;268.65;19.90;;;;;;;12.51;100.00;99144.72;4324006;33;20055;-73
2022/10/26 03:30:52;;;;;;;184.87;17.48;;;;;;;12.20;100.00;99106.69;4336785;32;20040;-73
2022/10/26 03:33:19;;;;;;;121.32;17.05;;;;;;;12.10;100.00;99155.19;4336437;33;20425;-75
2022/10/26 03:35:45;;;;;;;148.73;17.80;;;;;;;11.97;100.00;99146.44;4338851;33;20061;-73
2022/10/26 03:38:11;;;;;;;211.87;20.52;;;;;;;12.07;100.00;99155.72;4339502;33;20053;-73
2022/10/26 03:40:39;;;;;;;244.43;21.55;;;;;;;12.16;100.00;99149.59;4338080;33;20029;-73
2022/10/26 03:43:06;;;;;;;200.43;21.00;;;;;;;12.31;100.00;99157.00;4342315;32;20032;-73
2022/10/26 03:45:32;;;;;;;196.20;21.42;;;;;;;12.40;100.00;99161.91;4355944;32;20058;-74
2022/10/26 03:47:58;;;;;;;280.60;23.62;;;;;;;12.40;100.00;99151.94;4352893;32;20432;-73
2022/10/26 03:50:25;;;;;;;136.55;19.90;;;;;;;12.37;100.00;99155.16;4372755;32;20080;-73
2022/10/26 03:52:51;;;;;;;321.00;22.42;;;;;;;11.99;100.00;99149.69;4383760;32;20135;-73
2022/10/26 03:55:18;;;;;;;143.68;21.17;;;;;;;12.07;100.00;99123.34;4384130;32;20024;-73
2022/10/26 03:57:45;;;;;;;122.93;19.52;;;;;;;12.16;100.00;99170.37;4380465;32;20100;-74
2022/10/26 04:00:14;;;;;;;243.48;23.27;;;;;;;12.16;100.00;99151.47;4374392;32;20189;-73
2022/10/26 04:02:47;;;;;;;353.35;25.42;;;;;;;12.45;100.00;99161.97;4368522;32;20043;-73
2022/10/26 04:05:15;;;;;;;225.93;22.30;;;;;;;12.10;100.00;99136.31;4368260;32;20051;-73
2022/10/26 04:07:42;;;;;;;147.73;21.42;;;;;;;12.42;100.00;99162.47;4365563;32;20045;-73
2022/10/26 04:10:09;;;;;;;376.65;24.52;;;;;;;12.24;100.00;99133.97;4378994;32;20454;-73
2022/10/26 04:12:37;;;;;;;256.55;20.83;;;;;;;12.12;100.00;99169.25;4372163;32;20061;-74
2022/10/26 04:15:05;;;;;;;217.48;22.25;;;;;;;12.12;100.00;99126.06;4371271;32;20127;-74
2022/10/26 04:17:32;;;;;;;241.55;21.45;;;;;;;12.41;100.00;99158.16;4370206;32;20047;-74
2022/10/26 04:19:58;;;;;;;214.75;19.87;;;;;;;11.95;100.00;99132.41;4370120;32;20098;-73
2022/10/26 04:22:25;;;;;;;143.30;20.12;;;;;;;12.04;100.00;99134.63;4370523;32;20047;-74
2022/10/26 04:24:51;;;;;;;216.95;21.08;;;;;;;12.47;100.00;99171.41;4370602;32;20127;-74
2022/10/26 04:27:17;;;;;;;127.65;18.50;;;;;;;12.12;100.00;99161.16;4336655;33;20090;-74
2022/10/26 04:29:44;;;;;;;220.98;19.85;;;;;;;11.99;100.00;99171.28;4323895;33;20102;-73
2022/10/26 04:32:10;;;;;;;169.75;19.73;;;;;;;11.51;100.00;99078.53;4309583;33;20431;-73
2022/10/26 04:34:36;;;;;;;166.62;20.20;;;;;;;11.91;100.00;99136.66;4332200;33;20070;-73
2022/10/26 04:37:03;;;;;;;110.70;19.30;;;;;;;11.76;100.00;99139.22;4323417;33;20051;-73
2022/10/26 04:39:29;;;;;;;123.47;23.12;;;;;;;12.19;100.00;99169.87;4313147;33;20040;-73
2022/10/26 04:41:55;;;;;;;117.72;20.73;;;;;;;12.43;100.00;99161.41;4306157;33;20037;-73
2022/10/26 04:44:22;;;;;;;163.90;19.83;;;;;;;12.44;100.00;99161.13;4287592;33;20049;-73
2022/10/26 04:46:48;;;;;;;108.65;19.17;;;;;;;12.31;100.00;99161.59;4289897;33;20072;-73
2022/10/26 04:49:15;;;;;;;80.95;19.58;;;;;;;12.47;100.00;99165.22;4296168;33;20494;-73
2022/10/26 04:51:42;;;;;;;107.80;20.83;;;;;;;12.50;100.00;99167.41;4286329;33;20067;-73
2022/10/26 04:54:08;;;;;;;78.75;20.10;;;;;;;12.52;100.00;99173.34;4288230;33;20100;-75
2022/10/26 04:56:34;;;;;;;101.05;19.17;;;;;;;12.29;100.00;99131.34;4288533;33;20478;-73
2022/10/26 04:59:01;;;;;;;134.32;21.87;;;;;;;12.46;100.00;99166.28;4287899;33;20063;-74
2022/10/26 05:01:30;;;;;;;106.07;19.52;;;;;;;12.55;100.00;99167.44;4282869;33;20131;-73
2022/10/26 05:03:56;;;;;;;135.05;19.83;;;;;;;12.51;100.00;99177.94;4281779;33;20059;-72
2022/10/26 05:06:23;;;;;;;58.80;17.67;;;;;;;12.50;100.00;99170.91;4276729;33;20083;-72
2022/10/26 05:08:49;;;;;;;81.45;17.27;;;;;;;12.55;100.00;99162.03;4281213;33;20053;-72
2022/10/26 05:11:15;;;;;;;77.85;17.35;;;;;;;12.47;100.00;99154.41;4292666;33;20537;-73
2022/10/26 05:13:42;;;;;;;46.60;18.20;;;;;;;12.40;100.00;99129.50;4294333;33;20383;-74
2022/10/26 05:16:08;;;;;;;74.43;20.58;;;;;;;12.68;100.00;99166.16;4291348;33;20121;-76
2022/10/26 05:18:34;;;;;;;179.12;19.05;;;;;;;12.67;100.00;99168.06;4292158;33;20037;-73
2022/10/26 05:21:01;;;;;;;171.10;18.77;;;;;;;12.13;100.00;99128.50;4296016;33;20093;-73
2022/10/26 05:23:27;;;;;;;113.20;19.60;;;;;;;12.19;100.00;99180.66;4322701;33;20321;-73
2022/10/26 05:25:54;;;;;;;61.28;17.25;;;;;;;12.46;100.00;99177.91;4320155;33;20072;-73
2022/10/26 05:28:21;;;;;;;57.10;17.90;;;;;;;12.65;100.00;99181.03;4322029;33;20060;-73
2022/10/26 05:30:47;;;;;;;98.43;21.50;;;;;;;12.64;100.00;99182.09;4331399;33;20066;-77
2022/10/26 05:33:14;;;;;;;68.00;19.45;;;;;;;12.42;100.00;99181.38;4336318;33;20165;-73
2022/10/26 05:35:41;;;;;;;81.07;21.40;;;;;;;12.33;100.00;99187.25;4337425;33;20032;-73
2022/10/26 05:38:16;;;;;;;132.27;22.70;;;;;;;12.63;100.00;99201.25;4337189;33;20429;-75
2022/10/26 05:40:50;;;;;;;70.78;22.23;;;;;;;12.37;100.00;99192.16;4334239;33;20087;-78
2022/10/26 05:43:16;;;;;;;195.98;19.98;;;;;;;12.42;100.00;99159.78;4336383;33;20520;-75
2022/10/26 05:45:43;;;;;;;125.53;17.30;;;;;;;12.54;100.00;99206.34;4350174;33;20039;-76
2022/10/26 05:48:10;;;;;;;215.62;17.95;;;;;;;12.32;100.00;99169.44;4355520;32;20053;-76
2022/10/26 05:50:36;;;;;;;175.10;17.20;;;;;;;12.26;100.00;99210.94;4354440;33;20331;-79
2022/10/26 05:53:03;;;;;;;131.93;16.80;;;;;;;12.06;100.00;99208.06;4352406;33;20052;-76
2022/10/26 05:55:36;;;;;;;255.00;15.93;;;;;;;12.27;100.00;99209.88;4353641;33;20043;-76
2022/10/26 05:58:03;;;;;;;212.65;16.65;;;;;;;12.11;100.00;99221.59;4361727;32;20114;-77
2022/10/26 06:00:30;;;;;;;129.30;13.85;;;;;;;11.91;100.00;99220.28;4362408;32;20114;-82
2022/10/26 06:03:05;;;;;;;250.32;15.10;;;;;;;11.57;100.00;99188.09;4354411;32;20081;-78
2022/10/26 06:05:37;;;;;;;131.48;12.85;;;;;;;11.69;100.00;99217.63;4354913;32;20386;-76
2022/10/26 06:08:09;;;;;;;170.77;13.75;;;;;;;11.69;100.00;99231.09;4337583;33;20074;-78
2022/10/26 06:10:37;;;;;;;169.40;13.90;;;;;;;11.86;100.00;99228.34;4335792;33;20078;-78
2022/10/26 06:13:04;;;;;;;193.90;13.70;;;;;;;11.79;100.00;99219.59;4308875;33;20044;-77
2022/10/26 06:15:36;;;;;;;146.23;13.45;;;;;;;11.45;100.00;99188.25;4308819;33;20383;-77
2022/10/26 06:18:53;;;;;;;241.52;15.57;;;;;;;11.61;100.00;99186.50;4310882;33;20494;-77
2022/10/26 06:21:23;;;;;;;132.12;13.73;;;;;;;11.93;100.00;99236.25;4294517;33;20041;-78
2022/10/26 06:23:57;;;;;;;133.87;14.15;;;;;;;11.68;100.00;99205.22;4309906;33;20343;-78
2022/10/26 06:26:34;;;;;;;130.15;14.25;;;;;;;11.92;100.00;99234.66;4297535;33;20359;-78
2022/10/26 06:29:35;;;;;;;182.32;13.30;;;;;;;11.88;100.00;99234.28;4279446;33;20038;-78
2022/10/26 06:32:09;;;;;;;223.85;15.00;;;;;;;11.89;100.00;99241.31;4266387;33;20067;-78
2022/10/26 06:34:41;;;;;;;171.20;15.93;;;;;;;12.01;100.00;99243.09;4267542;33;20056;-77
2022/10/26 06:37:09;;;;;;;119.20;13.15;;;;;;;11.74;100.00;99197.97;4265858;33;20049;-79
2022/10/26 06:39:39;;;;;;;116.70;13.48;;;;;;;11.89;100.00;99241.31;4276664;33;20099;-78
2022/10/26 06:42:07;;;;;;;211.30;12.77;;;;;;;12.11;100.00;99248.59;4294660;33;20102;-77
2022/10/26 06:44:34;;;;;;;271.90;16.75;;;;;;;11.15;100.00;99210.19;4315741;33;20040;-77
2022/10/26 06:47:15;;;;;;;173.15;13.62;;;;;;;11.37;100.00;99201.34;4313883;33;20040;-80
2022/10/26 06:49:56;;;;;;;248.77;16.83;;;;;;;11.48;100.00;99246.22;4310162;33;20041;-77
2022/10/26 06:52:23;;;;;;;148.80;12.80;;;;;;;11.56;100.00;99248.47;4308983;33;20040;-78
2022/10/26 06:54:52;;;;;;;110.18;11.10;;;;;;;11.14;100.00;99213.97;4308830;33;20044;-76
2022/10/26 06:57:20;;;;;;;167.70;12.05;;;;;;;11.40;100.00;99260.16;4315869;33;20335;-78
2022/10/26 07:00:03;;;;;;;89.20;12.10;;;;;;;11.49;100.00;99258.66;4334006;33;20163;-77
2022/10/26 07:02:30;;;;;;;132.82;12.82;;;;;;;11.53;100.00;99259.75;4323221;33;20082;-78
2022/10/26 07:04:56;;;;;;;172.48;13.48;;;;;;;10.84;100.00;99198.19;4323939;33;20164;-76
2022/10/26 07:07:25;;;;;;;236.23;17.08;;;;;;;11.22;100.00;99263.94;4324219;33;20040;-76
2022/10/26 07:09:52;;;;;;;202.55;15.77;;;;;;;11.38;100.00;99267.66;4323053;33;20378;-77
2022/10/26 07:12:18;;;;;;;148.73;12.57;;;;;;;11.22;100.00;99267.44;4322751;33;20427;-77
2022/10/26 07:14:47;;;;;;;284.65;16.02;;;;;;;11.10;100.00;99272.13;4323747;33;20195;-78
2022/10/26 07:17:14;;;;;;;166.80;15.25;;;;;;;11.12;100.00;99275.41;4324793;33;20062;-77
2022/10/26 07:19:43;;;;;;;269.60;17.23;;;;;;;11.10;100.00;99231.69;4324814;33;20044;-77
2022/10/26 07:22:09;;;;;;;358.02;21.95;;;;;;;10.45;100.00;99244.72;4324755;33;20058;-77
2022/10/26 07:24:36;;;;;;;211.00;13.60;;;;;;;11.14;100.00;99278.66;4322113;33;20075;-77
2022/10/26 07:27:02;;;;;;;383.40;14.43;;;;;;;11.45;100.00;99279.06;4323796;33;20199;-79
2022/10/26 07:29:29;;;;;;;482.15;19.50;;;;;;;11.36;100.00;99237.44;4320858;33;20068;-79
2022/10/26 07:31:55;;;;;;;266.05;14.45;;;;;;;11.52;100.00;99247.37;4322408;33;20114;-78
2022/10/26 07:34:22;;;;;;;235.00;14.93;;;;;;;11.64;100.00;99291.19;4348533;32;20079;-78
2022/10/26 07:36:49;;;;;;;231.87;13.57;;;;;;;11.78;100.00;99280.84;4352050;32;20039;-77
2022/10/26 07:39:17;;;;;;;252.20;14.65;;;;;;;11.24;100.00;99284.19;4354980;32;20667;-77
2022/10/26 07:41:44;;;;;;;354.50;17.17;;;;;;;11.15;100.00;99220.19;4354164;32;20362;-78
2022/10/26 07:44:10;;;;;;;325.62;16.40;;;;;;;11.39;100.00;99288.16;4306849;33;20454;-77
2022/10/26 07:46:37;;;;;;;272.33;16.35;;;;;;;11.33;100.00;99298.06;4307047;33;20041;-77
2022/10/26 07:49:03;;;;;;;211.45;14.50;;;;;;;11.32;100.00;99265.97;4308519;33;20081;-76
2022/10/26 07:51:29;;;;;;;181.30;15.20;;;;;;;11.55;100.00;99306.19;4279847;33;20045;-76
2022/10/26 07:53:56;;;;;;;313.35;16.33;;;;;;;11.90;100.00;99296.94;4292496;33;20076;-77
2022/10/26 07:56:22;;;;;;;225.27;16.20;;;;;;;11.79;100.00;99297.84;4309048;33;20562;-76
2022/10/26 07:58:52;;;;;;;466.85;20.12;;;;;;;12.10;100.00;99296.34;4291248;33;20045;-77
2022/10/26 08:01:19;;;;;;;280.35;14.05;;;;;;;12.32;100.00;99301.72;4279251;33;20042;-77
2022/10/26 08:03:46;;;;;;;281.77;14.70;;;;;;;11.58;100.00;99284.13;4280473;33;20045;-78
2022/10/26 08:06:12;;;;;;;270.00;17.40;;;;;;;11.82;100.00;99256.88;4280975;33;20044;-77
2022/10/26 08:08:39;;;;;;;221.00;14.82;;;;;;;12.11;100.00;99298.00;4266390;33;20076;-76
2022/10/26 08:11:05;;;;;;;289.60;16.95;;;;;;;11.84;100.00;99260.16;4252178;33;20564;-73
2022/10/26 08:13:34;;;;;;;146.62;16.05;;;;;;;11.74;100.00;99281.59;4251086;33;20060;-75
2022/10/26 08:16:03;;;;;;;153.77;14.77;;;;;;;12.17;100.00;99293.47;4286357;33;20166;-74
2022/10/26 08:18:30;;;;;;;165.40;14.60;;;;;;;11.74;100.00;99297.78;4294559;33;20063;-74
2022/10/26 08:21:02;;;;;;;171.90;16.95;;;;;;;11.99;100.00;99300.81;4292466;33;20197;-74
2022/10/26 08:23:28;;;;;;;140.95;14.20;;;;;;;12.07;100.00;99285.25;4307218;33;20831;-74
2022/10/26 08:25:59;;;;;;;75.30;12.35;;;;;;;11.78;100.00;99296.22;4309361;33;20103;-73
2022/10/26 08:28:26;;;;;;;97.55;16.40;;;;;;;11.34;100.00;99277.31;4308225;33;20471;-74
2022/10/26 08:30:53;;;;;;;76.05;14.35;;;;;;;11.98;100.00;99304.59;4321126;33;20391;-74
2022/10/26 08:33:21;;;;;;;81.28;12.90;;;;;;;11.58;100.00;99257.16;4323267;33;20037;-73
2022/10/26 08:35:47;;;;;;;78.85;14.87;;;;;;;11.77;100.00;99297.28;4327768;33;20032;-75
2022/10/26 08:38:19;;;;;;;51.53;16.08;;;;;;;12.07;100.00;99293.34;4340321;33;20054;-75
2022/10/26 08:40:46;;;;;;;46.08;15.20;;;;;;;12.21;100.00;99307.28;4338821;33;20405;-75
2022/10/26 08:43:28;;;;;;;80.62;16.80;;;;;;;12.58;100.00;99293.88;4338247;33;20058;-76
2022/10/26 08:46:10;;;;;;;42.62;17.30;;;;;;;12.54;100.00;99308.97;4337180;33;20445;-76
2022/10/26 08:48:59;;;;;;;62.13;17.50;;;;;;;12.97;100.00;99304.47;4335392;33;20097;-76
2022/10/26 08:51:34;;;;;;;83.55;16.10;;;;;;;12.77;100.00;99296.19;4336410;33;20760;-75
2022/10/26 08:54:26;;;;;;;144.55;16.92;;;;;;;12.32;100.00;99274.72;4337944;33;20054;-75
2022/10/26 08:56:59;;;;;;;80.82;14.57;;;;;;;12.45;100.00;99310.50;4322488;33;20050;-75
2022/10/26 08:59:37;;;;;;;103.57;13.52;;;;;;;12.49;100.00;99281.91;4323010;33;20046;-76
2022/10/26 09:02:11;;;;;;;43.80;13.15;;;;;;;12.47;100.00;99273.25;4322755;33;20055;-75
2022/10/26 09:04:38;;;;;;;122.62;13.02;;;;;;;12.76;100.00;99324.28;4323335;33;20378;-76
2022/10/26 09:07:20;;;;;;;71.03;13.98;;;;;;;12.32;100.00;99288.22;4324120;33;20198;-76
2022/10/26 09:10:07;;;;;;;77.20;13.77;;;;;;;12.86;100.00;99324.34;4321850;33;20075;-76
2022/10/26 09:12:44;;;;;;;95.82;12.80;;;;;;;12.95;100.00;99339.03;4328981;33;20052;-76
2022/10/26 09:15:30;;;;;;;42.72;12.93;;;;;;;12.96;100.00;99332.56;4306759;33;20029;-74
2022/10/26 09:18:02;;;;;;;126.93;16.67;;;;;;;12.30;100.00;99336.28;4295714;33;20049;-75
2022/10/26 09:20:38;;;;;;;37.33;13.50;;;;;;;12.83;100.00;99343.81;4293861;33;20041;-75
2022/10/26 09:23:32;;;;;;;59.05;13.05;;;;;;;12.52;100.00;99303.81;4293161;33;20066;-74
2022/10/26 09:26:01;;;;;;;30.27;15.15;;;;;;;12.55;100.00;99340.28;4293022;33;20033;-77
2022/10/26 09:28:33;;;;;;;42.92;14.07;;;;;;;13.14;100.00;99352.97;4273379;33;20400;-75
2022/10/26 09:31:00;;;;;;;43.75;14.60;;;;;;;13.00;100.00;99344.50;4279594;33;20049;-74
2022/10/26 09:33:29;;;;;;;35.13;16.55;;;;;;;12.96;100.00;99356.09;4279293;33;20050;-75
2022/10/26 09:36:02;;;;;;;46.30;16.55;;;;;;;13.08;100.00;99357.53;4282593;33;20034;-77
2022/10/26 09:38:47;;;;;;;42.22;16.00;;;;;;;12.66;100.00;99323.09;4282895;33;20391;-74
2022/10/26 09:44:11;;;;;;;37.33;17.48;;;;;;;13.07;100.00;99364.00;4429591;27;20061;-77
2022/10/26 09:46:55;;;;;;;29.42;13.65;;;;;;;13.53;100.00;99346.50;4304627;33;20062;-76
2022/10/26 09:49:30;;;;;;;24.67;11.02;;;;;;;12.78;100.00;99365.34;4308642;33;20050;-79
2022/10/26 09:51:57;;;;;;;23.50;11.55;;;;;;;12.56;100.00;99339.22;4311656;33;20044;-76
2022/10/26 09:54:23;;;;;;;24.35;12.60;;;;;;;12.81;100.00;99354.03;4311297;33;20033;-78
2022/10/26 09:56:59;;;;;;;28.70;12.98;;;;;;;13.29;100.00;99338.75;4322319;33;20453;-75
2022/10/26 09:59:26;;;;;;;20.48;10.77;;;;;;;13.48;100.00;99371.62;4331233;33;20187;-80
2022/10/26 10:01:52;;;;;;;22.62;12.15;;;;;;;12.47;100.00;99335.34;4334293;33;20111;-77
2022/10/26 10:04:27;;;;;;;23.15;11.18;;;;;;;13.43;100.00;99368.87;4325060;33;20037;-75
2022/10/26 10:07:13;;;;;;;18.60;9.73;;;;;;;13.40;100.00;99361.28;4325917;33;20171;-74
2022/10/26 10:09:39;;;;;;;24.45;11.18;;;;;;;12.71;100.00;99379.88;4324138;33;20371;-74
2022/10/26 10:12:19;;;;;;;17.65;9.85;;;;;;;13.15;100.00;99375.44;4356176;32;20440;-75
2022/10/26 10:14:57;;;;;;;17.90;10.68;;;;;;;13.12;100.00;99343.50;4356628;32;20141;-78
2022/10/26 10:17:25;;;;;;;20.42;11.18;;;;;;;13.60;100.00;99363.34;4356274;32;20069;-76
2022/10/26 10:19:51;;;;;;;23.52;12.15;;;;;;;13.21;100.00;99369.81;4357363;32;20487;-76
2022/10/26 10:22:23;;;;;;;20.90;11.98;;;;;;;13.91;100.00;99374.31;4357376;32;20400;-76
2022/10/26 10:25:00;;;;;;;22.15;11.23;;;;;;;13.29;100.00;99337.94;4355068;32;20036;-79
2022/10/26 10:27:29;;;;;;;31.35;12.70;;;;;;;13.23;100.00;99380.34;4357325;32;20086;-77
2022/10/26 10:29:57;;;;;;;29.50;14.38;;;;;;;13.63;100.00;99370.94;4349158;32;20062;-76
2022/10/26 10:32:30;;;;;;;21.00;13.20;;;;;;;13.84;100.00;99349.41;4342773;33;20351;-77
2022/10/26 10:34:59;;;;;;;26.52;12.10;;;;;;;13.96;100.00;99322.91;4340554;33;20065;-79
2022/10/26 10:37:37;;;;;;;29.08;13.82;;;;;;;14.01;100.00;99317.53;4342729;33;20082;-76
2022/10/26 10:40:04;;;;;;;21.58;13.32;;;;;;;14.47;100.00;99357.47;4341427;33;20088;-76
2022/10/26 10:42:33;;;;;;;25.50;13.50;;;;;;;13.64;100.00;99323.84;4341894;33;20059;-77
2022/10/26 10:45:01;;;;;;;30.37;13.60;;;;;;;14.46;100.00;99351.22;4339136;33;20102;-76
2022/10/26 10:47:33;;;;;;;23.87;11.45;;;;;;;14.70;100.00;99339.94;4341891;33;20048;-76
2022/10/26 10:50:18;;;;;;;26.42;12.35;;;;;;;14.58;100.00;99344.75;4324862;33;20040;-77
2022/10/26 10:52:46;;;;;;;21.65;12.37;;;;;;;13.99;100.00;99352.97;4324425;33;20467;-77
2022/10/26 10:55:12;;;;;;;27.80;13.35;;;;;;;14.59;100.00;99343.69;4325355;33;20423;-76
2022/10/26 10:57:56;;;;;;;36.20;12.98;;;;;;;14.93;100.00;99340.47;4324235;33;20040;-77
2022/10/26 11:00:24;;;;;;;23.30;11.88;;;;;;;14.95;100.00;99275.94;4323336;33;20036;-77
2022/10/26 11:03:02;;;;;;;16.33;11.65;;;;;;;15.72;100.00;99338.22;4325044;33;20040;-77
2022/10/26 11:05:47;;;;;;;21.83;11.68;;;;;;;16.28;100.00;99339.91;4323841;33;20040;-76
2022/10/26 11:08:25;;;;;;;21.23;11.00;;;;;;;16.74;100.00;99330.66;4323512;33;20056;-77
2022/10/26 11:11:19;;;;;;;22.08;10.73;;;;;;;17.01;100.00;99336.47;4311883;33;20037;-77
2022/10/26 11:13:51;;;;;;;23.35;10.88;;;;;;;17.15;100.00;99303.16;4308789;33;20084;-77
2022/10/26 11:16:23;;;;;;;18.80;9.73;;;;;;;16.99;100.00;99332.41;4310811;33;20417;-77
2022/10/26 11:18:57;;;;;;;16.70;10.25;;;;;;;17.21;100.00;99323.78;4305371;33;20172;-78
2022/10/26 11:21:27;;;;;;;16.23;10.70;;;;;;;16.95;100.00;99337.59;4304150;33;20130;-77
2022/10/26 11:24:09;;;;;;;13.43;8.60;;;;;;;17.38;100.00;99324.16;4310055;33;20177;-76
2022/10/26 11:26:40;;;;;;;;;;;;;;;17.24;100.00;99342.25;4309224;33;20090;-79
2022/10/26 11:29:32;;;;;;;19.60;8.85;;;;;;;17.56;100.00;99341.66;4306790;33;19979;-77